sensor_id;sensor_type;location;lat;lon;timestamp;P1;durP1;ratioP1;P2;durP2;ratioP2
75912;SDS011;64592;52.168;21.040;2024-03-02T00:01:18;40.70;;;17.33;;
75912;SDS011;64592;52.168;21.040;2024-03-02T00:06:19;37.22;;;20.23;;
75912;SDS011;64592;52.168;21.040;2024-03-02T00:11:22;45.47;;;19.23;;
75912;SDS011;64592;52.168;21.040;2024-03-02T00:16:25;43.97;;;20.08;;
75912;SDS011;64592;52.168;21.040;2024-03-02T00:21:31;38.58;;;19.02;;
75912;SDS011;64592;52.168;21.040;2024-03-02T00:26:33;39.17;;;18.48;;
75912;SDS011;64592;52.168;21.040;2024-03-02T00:31:36;37.17;;;18.13;;
75912;SDS011;64592;52.168;21.040;2024-03-02T00:36:40;35.95;;;18.23;;
75912;SDS011;64592;52.168;21.040;2024-03-02T00:41:42;37.95;;;18.40;;
75912;SDS011;64592;52.168;21.040;2024-03-02T00:46:45;43.35;;;19.27;;
75912;SDS011;64592;52.168;21.040;2024-03-02T00:51:48;39.80;;;19.58;;
75912;SDS011;64592;52.168;21.040;2024-03-02T00:56:50;36.10;;;17.70;;
75912;SDS011;64592;52.168;21.040;2024-03-02T01:01:54;39.95;;;18.85;;
75912;SDS011;64592;52.168;21.040;2024-03-02T01:06:55;35.33;;;18.90;;
75912;SDS011;64592;52.168;21.040;2024-03-02T01:11:58;33.38;;;17.88;;
75912;SDS011;64592;52.168;21.040;2024-03-02T01:17:02;40.60;;;18.35;;
75912;SDS011;64592;52.168;21.040;2024-03-02T01:22:04;37.25;;;18.40;;
75912;SDS011;64592;52.168;21.040;2024-03-02T01:27:06;40.78;;;17.90;;
75912;SDS011;64592;52.168;21.040;2024-03-02T01:32:09;34.40;;;16.15;;
75912;SDS011;64592;52.168;21.040;2024-03-02T01:37:11;38.75;;;18.38;;
75912;SDS011;64592;52.168;21.040;2024-03-02T01:42:13;34.33;;;18.02;;
75912;SDS011;64592;52.168;21.040;2024-03-02T01:47:16;38.33;;;18.60;;
75912;SDS011;64592;52.168;21.040;2024-03-02T01:52:18;35.25;;;16.75;;
75912;SDS011;64592;52.168;21.040;2024-03-02T01:57:20;36.92;;;16.90;;
75912;SDS011;64592;52.168;21.040;2024-03-02T02:02:23;34.50;;;17.30;;
75912;SDS011;64592;52.168;21.040;2024-03-02T02:07:25;38.17;;;19.08;;
75912;SDS011;64592;52.168;21.040;2024-03-02T02:12:26;36.45;;;18.60;;
75912;SDS011;64592;52.168;21.040;2024-03-02T02:17:29;37.60;;;16.63;;
75912;SDS011;64592;52.168;21.040;2024-03-02T02:22:32;35.15;;;17.42;;
75912;SDS011;64592;52.168;21.040;2024-03-02T02:27:34;34.67;;;17.13;;
75912;SDS011;64592;52.168;21.040;2024-03-02T02:32:36;35.13;;;17.98;;
75912;SDS011;64592;52.168;21.040;2024-03-02T02:37:39;37.70;;;17.00;;
75912;SDS011;64592;52.168;21.040;2024-03-02T02:42:41;36.72;;;17.50;;
75912;SDS011;64592;52.168;21.040;2024-03-02T02:47:43;35.10;;;17.98;;
75912;SDS011;64592;52.168;21.040;2024-03-02T02:52:46;37.28;;;17.15;;
75912;SDS011;64592;52.168;21.040;2024-03-02T02:57:48;36.30;;;16.60;;
75912;SDS011;64592;52.168;21.040;2024-03-02T03:02:50;34.42;;;17.55;;
75912;SDS011;64592;52.168;21.040;2024-03-02T03:07:53;33.85;;;16.38;;
75912;SDS011;64592;52.168;21.040;2024-03-02T03:12:55;35.70;;;17.60;;
75912;SDS011;64592;52.168;21.040;2024-03-02T03:17:56;37.15;;;16.63;;
75912;SDS011;64592;52.168;21.040;2024-03-02T03:22:59;33.97;;;17.08;;
75912;SDS011;64592;52.168;21.040;2024-03-02T03:28:01;31.08;;;14.90;;
75912;SDS011;64592;52.168;21.040;2024-03-02T03:33:03;33.70;;;15.85;;
75912;SDS011;64592;52.168;21.040;2024-03-02T03:38:07;30.58;;;15.35;;
75912;SDS011;64592;52.168;21.040;2024-03-02T03:43:09;30.23;;;15.48;;
75912;SDS011;64592;52.168;21.040;2024-03-02T03:48:10;32.00;;;16.10;;
75912;SDS011;64592;52.168;21.040;2024-03-02T03:53:13;34.67;;;16.52;;
75912;SDS011;64592;52.168;21.040;2024-03-02T03:58:15;35.35;;;16.85;;
75912;SDS011;64592;52.168;21.040;2024-03-02T04:03:18;34.50;;;14.68;;
75912;SDS011;64592;52.168;21.040;2024-03-02T04:08:22;35.03;;;15.95;;
75912;SDS011;64592;52.168;21.040;2024-03-02T04:13:23;32.53;;;16.60;;
75912;SDS011;64592;52.168;21.040;2024-03-02T04:18:25;31.35;;;14.60;;
75912;SDS011;64592;52.168;21.040;2024-03-02T04:23:28;30.88;;;15.35;;
75912;SDS011;64592;52.168;21.040;2024-03-02T04:28:30;33.47;;;16.42;;
75912;SDS011;64592;52.168;21.040;2024-03-02T04:33:31;38.13;;;15.02;;
75912;SDS011;64592;52.168;21.040;2024-03-02T04:38:34;34.63;;;17.65;;
75912;SDS011;64592;52.168;21.040;2024-03-02T04:43:36;32.28;;;15.55;;
75912;SDS011;64592;52.168;21.040;2024-03-02T04:48:38;34.10;;;16.25;;
75912;SDS011;64592;52.168;21.040;2024-03-02T04:53:41;37.08;;;18.23;;
75912;SDS011;64592;52.168;21.040;2024-03-02T04:58:42;30.77;;;15.38;;
75912;SDS011;64592;52.168;21.040;2024-03-02T05:03:44;33.38;;;15.65;;
75912;SDS011;64592;52.168;21.040;2024-03-02T05:08:47;29.60;;;15.27;;
75912;SDS011;64592;52.168;21.040;2024-03-02T05:13:49;34.28;;;15.27;;
75912;SDS011;64592;52.168;21.040;2024-03-02T05:18:50;31.33;;;14.20;;
75912;SDS011;64592;52.168;21.040;2024-03-02T05:23:53;32.25;;;14.95;;
75912;SDS011;64592;52.168;21.040;2024-03-02T05:28:55;33.08;;;15.73;;
75912;SDS011;64592;52.168;21.040;2024-03-02T05:33:57;29.00;;;14.13;;
75912;SDS011;64592;52.168;21.040;2024-03-02T05:39:00;29.20;;;14.77;;
75912;SDS011;64592;52.168;21.040;2024-03-02T05:44:04;35.75;;;15.57;;
75912;SDS011;64592;52.168;21.040;2024-03-02T05:49:06;27.25;;;14.35;;
75912;SDS011;64592;52.168;21.040;2024-03-02T05:54:11;31.58;;;14.35;;
75912;SDS011;64592;52.168;21.040;2024-03-02T05:59:12;26.25;;;13.82;;
75912;SDS011;64592;52.168;21.040;2024-03-02T06:04:16;33.35;;;15.50;;
75912;SDS011;64592;52.168;21.040;2024-03-02T06:09:19;32.90;;;15.63;;
75912;SDS011;64592;52.168;21.040;2024-03-02T06:14:21;32.60;;;16.23;;
75912;SDS011;64592;52.168;21.040;2024-03-02T06:19:22;29.98;;;14.90;;
75912;SDS011;64592;52.168;21.040;2024-03-02T06:24:25;35.60;;;14.85;;
75912;SDS011;64592;52.168;21.040;2024-03-02T06:29:27;33.22;;;15.13;;
75912;SDS011;64592;52.168;21.040;2024-03-02T06:34:29;27.88;;;14.30;;
75912;SDS011;64592;52.168;21.040;2024-03-02T06:39:32;35.38;;;16.50;;
75912;SDS011;64592;52.168;21.040;2024-03-02T06:44:34;28.90;;;12.35;;
75912;SDS011;64592;52.168;21.040;2024-03-02T06:49:36;28.65;;;14.15;;
75912;SDS011;64592;52.168;21.040;2024-03-02T06:54:39;28.75;;;14.00;;
75912;SDS011;64592;52.168;21.040;2024-03-02T06:59:40;29.88;;;12.95;;
75912;SDS011;64592;52.168;21.040;2024-03-02T07:04:42;25.05;;;12.70;;
75912;SDS011;64592;52.168;21.040;2024-03-02T07:09:46;24.08;;;12.82;;
75912;SDS011;64592;52.168;21.040;2024-03-02T07:14:48;30.88;;;13.88;;
75912;SDS011;64592;52.168;21.040;2024-03-02T07:20:11;26.20;;;13.45;;
75912;SDS011;64592;52.168;21.040;2024-03-02T07:25:14;31.70;;;13.98;;
75912;SDS011;64592;52.168;21.040;2024-03-02T07:30:16;26.23;;;12.32;;
75912;SDS011;64592;52.168;21.040;2024-03-02T07:35:18;30.20;;;13.25;;
75912;SDS011;64592;52.168;21.040;2024-03-02T07:40:22;26.25;;;13.27;;
75912;SDS011;64592;52.168;21.040;2024-03-02T07:45:24;27.30;;;12.75;;
75912;SDS011;64592;52.168;21.040;2024-03-02T07:50:25;25.80;;;13.15;;
75912;SDS011;64592;52.168;21.040;2024-03-02T07:55:28;29.13;;;14.40;;
75912;SDS011;64592;52.168;21.040;2024-03-02T08:00:30;41.92;;;13.63;;
75912;SDS011;64592;52.168;21.040;2024-03-02T08:05:32;27.45;;;13.15;;
75912;SDS011;64592;52.168;21.040;2024-03-02T08:10:35;30.17;;;14.40;;
75912;SDS011;64592;52.168;21.040;2024-03-02T08:15:36;26.52;;;12.32;;
75912;SDS011;64592;52.168;21.040;2024-03-02T08:20:38;26.92;;;14.30;;
75912;SDS011;64592;52.168;21.040;2024-03-02T08:25:41;30.73;;;14.23;;
75912;SDS011;64592;52.168;21.040;2024-03-02T08:30:43;31.38;;;15.48;;
75912;SDS011;64592;52.168;21.040;2024-03-02T08:35:45;28.10;;;12.65;;
75912;SDS011;64592;52.168;21.040;2024-03-02T08:40:48;29.63;;;13.15;;
75912;SDS011;64592;52.168;21.040;2024-03-02T08:45:51;27.20;;;12.45;;
75912;SDS011;64592;52.168;21.040;2024-03-02T08:50:52;30.55;;;13.20;;
75912;SDS011;64592;52.168;21.040;2024-03-02T08:55:56;30.00;;;14.13;;
75912;SDS011;64592;52.168;21.040;2024-03-02T09:00:58;30.73;;;14.13;;
75912;SDS011;64592;52.168;21.040;2024-03-02T09:05:59;28.08;;;13.07;;
75912;SDS011;64592;52.168;21.040;2024-03-02T09:11:03;24.55;;;12.77;;
75912;SDS011;64592;52.168;21.040;2024-03-02T09:16:05;28.88;;;13.40;;
75912;SDS011;64592;52.168;21.040;2024-03-02T09:21:10;29.48;;;12.60;;
75912;SDS011;64592;52.168;21.040;2024-03-02T09:26:13;33.22;;;13.75;;
75912;SDS011;64592;52.168;21.040;2024-03-02T09:31:15;26.10;;;13.13;;
75912;SDS011;64592;52.168;21.040;2024-03-02T09:36:17;33.70;;;15.07;;
75912;SDS011;64592;52.168;21.040;2024-03-02T09:41:20;32.90;;;13.73;;
75912;SDS011;64592;52.168;21.040;2024-03-02T09:46:22;27.00;;;13.25;;
75912;SDS011;64592;52.168;21.040;2024-03-02T09:51:24;26.70;;;14.05;;
75912;SDS011;64592;52.168;21.040;2024-03-02T09:56:27;33.35;;;14.48;;
75912;SDS011;64592;52.168;21.040;2024-03-02T10:01:29;27.45;;;11.50;;
75912;SDS011;64592;52.168;21.040;2024-03-02T10:06:31;28.38;;;13.25;;
75912;SDS011;64592;52.168;21.040;2024-03-02T10:11:35;25.52;;;12.90;;
75912;SDS011;64592;52.168;21.040;2024-03-02T10:16:39;26.17;;;13.50;;
75912;SDS011;64592;52.168;21.040;2024-03-02T10:21:43;34.72;;;14.90;;
75912;SDS011;64592;52.168;21.040;2024-03-02T10:26:46;28.20;;;15.27;;
75912;SDS011;64592;52.168;21.040;2024-03-02T10:31:48;27.88;;;13.30;;
75912;SDS011;64592;52.168;21.040;2024-03-02T10:36:50;26.83;;;13.18;;
75912;SDS011;64592;52.168;21.040;2024-03-02T10:41:53;31.65;;;14.70;;
75912;SDS011;64592;52.168;21.040;2024-03-02T10:46:57;27.58;;;13.75;;
75912;SDS011;64592;52.168;21.040;2024-03-02T10:52:02;32.50;;;16.05;;
75912;SDS011;64592;52.168;21.040;2024-03-02T10:57:05;27.02;;;13.85;;
75912;SDS011;64592;52.168;21.040;2024-03-02T11:02:09;30.77;;;15.25;;
75912;SDS011;64592;52.168;21.040;2024-03-02T11:07:13;32.55;;;15.05;;
75912;SDS011;64592;52.168;21.040;2024-03-02T11:12:19;30.10;;;13.65;;
75912;SDS011;64592;52.168;21.040;2024-03-02T11:17:24;27.27;;;14.07;;
75912;SDS011;64592;52.168;21.040;2024-03-02T11:22:26;34.42;;;15.88;;
75912;SDS011;64592;52.168;21.040;2024-03-02T11:33:03;34.60;;;17.95;;
75912;SDS011;64592;52.168;21.040;2024-03-02T11:38:07;33.55;;;17.55;;
75912;SDS011;64592;52.168;21.040;2024-03-02T11:43:11;39.75;;;18.83;;
75912;SDS011;64592;52.168;21.040;2024-03-02T11:48:14;42.78;;;18.80;;
75912;SDS011;64592;52.168;21.040;2024-03-02T11:53:16;40.92;;;19.85;;
75912;SDS011;64592;52.168;21.040;2024-03-02T11:58:20;39.50;;;18.67;;
75912;SDS011;64592;52.168;21.040;2024-03-02T12:03:24;36.53;;;18.92;;
75912;SDS011;64592;52.168;21.040;2024-03-02T12:08:27;42.80;;;21.42;;
75912;SDS011;64592;52.168;21.040;2024-03-02T12:13:30;40.42;;;19.38;;
75912;SDS011;64592;52.168;21.040;2024-03-02T12:18:33;41.08;;;21.75;;
75912;SDS011;64592;52.168;21.040;2024-03-02T12:23:36;42.90;;;19.55;;
75912;SDS011;64592;52.168;21.040;2024-03-02T12:28:39;37.35;;;20.75;;
75912;SDS011;64592;52.168;21.040;2024-03-02T12:33:40;43.80;;;19.92;;
75912;SDS011;64592;52.168;21.040;2024-03-02T12:38:43;43.65;;;21.20;;
75912;SDS011;64592;52.168;21.040;2024-03-02T12:43:46;36.28;;;19.38;;
75912;SDS011;64592;52.168;21.040;2024-03-02T12:48:48;40.13;;;19.80;;
75912;SDS011;64592;52.168;21.040;2024-03-02T12:53:52;40.05;;;19.45;;
75912;SDS011;64592;52.168;21.040;2024-03-02T12:58:56;36.63;;;18.83;;
75912;SDS011;64592;52.168;21.040;2024-03-02T13:03:59;39.28;;;19.92;;
75912;SDS011;64592;52.168;21.040;2024-03-02T13:09:01;36.83;;;20.20;;
75912;SDS011;64592;52.168;21.040;2024-03-02T13:14:06;34.70;;;19.38;;
75912;SDS011;64592;52.168;21.040;2024-03-02T13:19:07;38.22;;;19.10;;
75912;SDS011;64592;52.168;21.040;2024-03-02T13:24:09;35.47;;;20.63;;
75912;SDS011;64592;52.168;21.040;2024-03-02T13:29:12;40.10;;;20.05;;
75912;SDS011;64592;52.168;21.040;2024-03-02T13:34:14;34.53;;;18.30;;
75912;SDS011;64592;52.168;21.040;2024-03-02T13:39:15;39.90;;;19.63;;
75912;SDS011;64592;52.168;21.040;2024-03-02T13:44:18;38.45;;;19.02;;
75912;SDS011;64592;52.168;21.040;2024-03-02T13:49:21;39.38;;;19.20;;
75912;SDS011;64592;52.168;21.040;2024-03-02T13:54:23;36.67;;;20.23;;
75912;SDS011;64592;52.168;21.040;2024-03-02T13:59:28;39.80;;;19.63;;
75912;SDS011;64592;52.168;21.040;2024-03-02T14:04:30;42.22;;;21.45;;
75912;SDS011;64592;52.168;21.040;2024-03-02T14:09:33;35.08;;;18.95;;
75912;SDS011;64592;52.168;21.040;2024-03-02T14:14:36;41.83;;;20.33;;
75912;SDS011;64592;52.168;21.040;2024-03-02T14:19:38;34.00;;;18.95;;
75912;SDS011;64592;52.168;21.040;2024-03-02T14:24:40;33.83;;;18.50;;
75912;SDS011;64592;52.168;21.040;2024-03-02T14:29:44;31.98;;;17.95;;
75912;SDS011;64592;52.168;21.040;2024-03-02T14:34:46;36.72;;;19.00;;
75912;SDS011;64592;52.168;21.040;2024-03-02T14:39:48;37.75;;;20.23;;
75912;SDS011;64592;52.168;21.040;2024-03-02T14:44:52;35.42;;;19.77;;
75912;SDS011;64592;52.168;21.040;2024-03-02T14:49:53;37.00;;;20.52;;
75912;SDS011;64592;52.168;21.040;2024-03-02T14:54:55;39.50;;;20.38;;
75912;SDS011;64592;52.168;21.040;2024-03-02T14:59:58;36.97;;;19.70;;
75912;SDS011;64592;52.168;21.040;2024-03-02T15:05:00;34.90;;;18.73;;
75912;SDS011;64592;52.168;21.040;2024-03-02T15:10:01;37.58;;;20.90;;
75912;SDS011;64592;52.168;21.040;2024-03-02T15:15:06;41.22;;;22.05;;
75912;SDS011;64592;52.168;21.040;2024-03-02T15:20:10;42.30;;;20.17;;
75912;SDS011;64592;52.168;21.040;2024-03-02T15:25:12;39.38;;;21.42;;
75912;SDS011;64592;52.168;21.040;2024-03-02T15:30:17;42.28;;;22.42;;
75912;SDS011;64592;52.168;21.040;2024-03-02T15:35:19;43.13;;;20.55;;
75912;SDS011;64592;52.168;21.040;2024-03-02T15:40:20;40.72;;;20.75;;
75912;SDS011;64592;52.168;21.040;2024-03-02T15:45:23;43.75;;;21.67;;
75912;SDS011;64592;52.168;21.040;2024-03-02T15:50:33;42.08;;;21.83;;
75912;SDS011;64592;52.168;21.040;2024-03-02T15:55:36;40.25;;;22.15;;
75912;SDS011;64592;52.168;21.040;2024-03-02T16:00:40;40.90;;;22.05;;
75912;SDS011;64592;52.168;21.040;2024-03-02T16:05:43;40.15;;;21.65;;
75912;SDS011;64592;52.168;21.040;2024-03-02T16:10:47;41.10;;;21.02;;
75912;SDS011;64592;52.168;21.040;2024-03-02T16:15:52;44.83;;;20.85;;
75912;SDS011;64592;52.168;21.040;2024-03-02T16:20:54;44.97;;;21.35;;
75912;SDS011;64592;52.168;21.040;2024-03-02T16:25:55;39.58;;;20.95;;
75912;SDS011;64592;52.168;21.040;2024-03-02T16:30:58;41.40;;;20.80;;
75912;SDS011;64592;52.168;21.040;2024-03-02T16:36:00;39.50;;;19.35;;
75912;SDS011;64592;52.168;21.040;2024-03-02T16:41:02;39.33;;;19.60;;
75912;SDS011;64592;52.168;21.040;2024-03-02T16:46:05;41.42;;;21.35;;
75912;SDS011;64592;52.168;21.040;2024-03-02T16:51:07;37.53;;;19.63;;
75912;SDS011;64592;52.168;21.040;2024-03-02T16:56:09;37.35;;;21.15;;
75912;SDS011;64592;52.168;21.040;2024-03-02T17:01:12;38.58;;;19.23;;
75912;SDS011;64592;52.168;21.040;2024-03-02T17:06:14;41.88;;;20.73;;
75912;SDS011;64592;52.168;21.040;2024-03-02T17:11:15;39.33;;;20.00;;
75912;SDS011;64592;52.168;21.040;2024-03-02T17:16:19;32.28;;;17.42;;
75912;SDS011;64592;52.168;21.040;2024-03-02T17:21:21;33.15;;;18.05;;
75912;SDS011;64592;52.168;21.040;2024-03-02T17:26:23;37.55;;;18.42;;
75912;SDS011;64592;52.168;21.040;2024-03-02T17:31:26;39.50;;;19.50;;
75912;SDS011;64592;52.168;21.040;2024-03-02T17:36:28;36.53;;;18.45;;
75912;SDS011;64592;52.168;21.040;2024-03-02T17:41:29;39.35;;;17.98;;
75912;SDS011;64592;52.168;21.040;2024-03-02T17:46:32;32.45;;;18.35;;
75912;SDS011;64592;52.168;21.040;2024-03-02T17:51:34;42.25;;;19.20;;
75912;SDS011;64592;52.168;21.040;2024-03-02T17:56:35;37.90;;;19.10;;
75912;SDS011;64592;52.168;21.040;2024-03-02T18:01:38;34.70;;;18.08;;
75912;SDS011;64592;52.168;21.040;2024-03-02T18:06:40;35.65;;;17.65;;
75912;SDS011;64592;52.168;21.040;2024-03-02T18:11:42;36.70;;;18.90;;
75912;SDS011;64592;52.168;21.040;2024-03-02T18:16:46;30.15;;;17.20;;
75912;SDS011;64592;52.168;21.040;2024-03-02T18:21:48;33.90;;;17.23;;
75912;SDS011;64592;52.168;21.040;2024-03-02T18:26:49;34.35;;;19.65;;
75912;SDS011;64592;52.168;21.040;2024-03-02T18:31:52;34.42;;;18.58;;
75912;SDS011;64592;52.168;21.040;2024-03-02T18:36:54;30.75;;;16.60;;
75912;SDS011;64592;52.168;21.040;2024-03-02T18:41:56;32.78;;;17.67;;
75912;SDS011;64592;52.168;21.040;2024-03-02T18:46:59;32.35;;;17.70;;
75912;SDS011;64592;52.168;21.040;2024-03-02T18:52:00;31.88;;;16.65;;
75912;SDS011;64592;52.168;21.040;2024-03-02T18:57:02;33.33;;;16.98;;
75912;SDS011;64592;52.168;21.040;2024-03-02T19:02:05;31.30;;;17.33;;
75912;SDS011;64592;52.168;21.040;2024-03-02T19:07:07;32.47;;;17.75;;
75912;SDS011;64592;52.168;21.040;2024-03-02T19:12:10;31.50;;;16.85;;
75912;SDS011;64592;52.168;21.040;2024-03-02T19:17:13;33.10;;;17.92;;
75912;SDS011;64592;52.168;21.040;2024-03-02T19:22:15;30.88;;;17.02;;
75912;SDS011;64592;52.168;21.040;2024-03-02T19:27:17;29.60;;;15.82;;
75912;SDS011;64592;52.168;21.040;2024-03-02T19:32:20;37.78;;;16.88;;
75912;SDS011;64592;52.168;21.040;2024-03-02T19:37:23;31.15;;;16.95;;
75912;SDS011;64592;52.168;21.040;2024-03-02T19:42:25;35.60;;;17.75;;
75912;SDS011;64592;52.168;21.040;2024-03-02T19:47:29;31.17;;;17.55;;
75912;SDS011;64592;52.168;21.040;2024-03-02T19:52:32;31.63;;;16.48;;
75912;SDS011;64592;52.168;21.040;2024-03-02T19:57:34;32.17;;;17.45;;
75912;SDS011;64592;52.168;21.040;2024-03-02T20:07:43;30.45;;;16.42;;
75912;SDS011;64592;52.168;21.040;2024-03-02T20:12:45;32.15;;;17.48;;
75912;SDS011;64592;52.168;21.040;2024-03-02T20:17:49;36.08;;;17.33;;
75912;SDS011;64592;52.168;21.040;2024-03-02T20:22:50;36.47;;;17.10;;
75912;SDS011;64592;52.168;21.040;2024-03-02T20:27:52;29.98;;;17.33;;
75912;SDS011;64592;52.168;21.040;2024-03-02T20:32:56;35.38;;;17.38;;
75912;SDS011;64592;52.168;21.040;2024-03-02T20:37:58;31.05;;;16.33;;
75912;SDS011;64592;52.168;21.040;2024-03-02T20:42:59;35.53;;;17.08;;
75912;SDS011;64592;52.168;21.040;2024-03-02T20:48:05;29.42;;;15.00;;
75912;SDS011;64592;52.168;21.040;2024-03-02T20:53:08;33.15;;;17.02;;
75912;SDS011;64592;52.168;21.040;2024-03-02T20:58:09;25.77;;;16.23;;
75912;SDS011;64592;52.168;21.040;2024-03-02T21:03:13;28.98;;;16.20;;
75912;SDS011;64592;52.168;21.040;2024-03-02T21:08:14;30.17;;;15.90;;
75912;SDS011;64592;52.168;21.040;2024-03-02T21:13:16;30.10;;;16.60;;
75912;SDS011;64592;52.168;21.040;2024-03-02T21:18:19;30.40;;;15.45;;
75912;SDS011;64592;52.168;21.040;2024-03-02T21:23:20;29.00;;;16.20;;
75912;SDS011;64592;52.168;21.040;2024-03-02T21:28:22;31.77;;;17.15;;
75912;SDS011;64592;52.168;21.040;2024-03-02T21:33:27;28.60;;;15.73;;
75912;SDS011;64592;52.168;21.040;2024-03-02T21:38:29;30.55;;;16.45;;
75912;SDS011;64592;52.168;21.040;2024-03-02T21:43:31;29.33;;;14.68;;
75912;SDS011;64592;52.168;21.040;2024-03-02T21:48:35;34.15;;;17.13;;
75912;SDS011;64592;52.168;21.040;2024-03-02T21:53:36;27.90;;;15.27;;
75912;SDS011;64592;52.168;21.040;2024-03-02T21:58:38;36.92;;;16.30;;
75912;SDS011;64592;52.168;21.040;2024-03-02T22:03:41;34.38;;;16.10;;
75912;SDS011;64592;52.168;21.040;2024-03-02T22:08:45;26.80;;;14.15;;
75912;SDS011;64592;52.168;21.040;2024-03-02T22:13:47;25.60;;;14.80;;
75912;SDS011;64592;52.168;21.040;2024-03-02T22:18:50;31.35;;;14.98;;
75912;SDS011;64592;52.168;21.040;2024-03-02T22:23:52;25.70;;;15.40;;
75912;SDS011;64592;52.168;21.040;2024-03-02T22:28:53;28.77;;;15.00;;
75912;SDS011;64592;52.168;21.040;2024-03-02T22:33:57;27.08;;;14.50;;
75912;SDS011;64592;52.168;21.040;2024-03-02T22:38:59;22.27;;;14.65;;
75912;SDS011;64592;52.168;21.040;2024-03-02T22:44:01;24.20;;;13.82;;
75912;SDS011;64592;52.168;21.040;2024-03-02T22:49:04;26.65;;;14.30;;
75912;SDS011;64592;52.168;21.040;2024-03-02T22:54:05;25.85;;;14.35;;
75912;SDS011;64592;52.168;21.040;2024-03-02T22:59:07;28.58;;;14.80;;
75912;SDS011;64592;52.168;21.040;2024-03-02T23:04:10;26.20;;;14.88;;
75912;SDS011;64592;52.168;21.040;2024-03-02T23:09:12;26.73;;;15.15;;
75912;SDS011;64592;52.168;21.040;2024-03-02T23:14:13;23.42;;;13.55;;
75912;SDS011;64592;52.168;21.040;2024-03-02T23:19:17;30.48;;;15.38;;
75912;SDS011;64592;52.168;21.040;2024-03-02T23:24:20;25.05;;;14.75;;
75912;SDS011;64592;52.168;21.040;2024-03-02T23:29:22;29.10;;;14.52;;
75912;SDS011;64592;52.168;21.040;2024-03-02T23:34:25;28.17;;;13.40;;
75912;SDS011;64592;52.168;21.040;2024-03-02T23:39:27;28.10;;;15.15;;
75912;SDS011;64592;52.168;21.040;2024-03-02T23:45:07;24.05;;;13.40;;
75912;SDS011;64592;52.168;21.040;2024-03-02T23:50:11;23.92;;;12.88;;
75912;SDS011;64592;52.168;21.040;2024-03-02T23:55:13;27.48;;;13.95;;
